createdAt,value
2017-12-31T00:03:31.002Z,12.27
2017-12-31T00:08:32.927Z,12.21
2017-12-31T00:13:34.264Z,12.24
2017-12-31T00:18:50.212Z,12.24
2017-12-31T00:23:51.539Z,12.30
2017-12-31T00:28:52.862Z,12.34
2017-12-31T00:33:54.221Z,12.33
2017-12-31T00:38:55.535Z,12.24
2017-12-31T00:43:56.855Z,12.25
2017-12-31T00:48:58.182Z,12.26
2017-12-31T00:53:59.529Z,12.25
2017-12-31T00:59:01.602Z,12.09
2017-12-31T01:04:02.982Z,12.01
2017-12-31T01:09:04.361Z,11.89
2017-12-31T01:14:05.674Z,11.92
2017-12-31T01:19:07.702Z,11.94
2017-12-31T01:24:18.037Z,11.76
2017-12-31T01:29:20.227Z,11.71
2017-12-31T01:34:21.580Z,11.57
2017-12-31T01:39:22.910Z,11.69
2017-12-31T01:44:25.051Z,11.73
2017-12-31T01:49:26.379Z,11.82
2017-12-31T01:54:27.710Z,11.84
2017-12-31T01:59:29.803Z,11.98
2017-12-31T02:04:31.119Z,11.93
2017-12-31T02:09:33.195Z,12.03
2017-12-31T02:14:34.527Z,12.13
2017-12-31T02:19:36.596Z,12.14
2017-12-31T02:24:47.338Z,12.27
2017-12-31T02:29:49.809Z,12.29
2017-12-31T02:34:51.159Z,12.32
2017-12-31T02:39:52.489Z,12.41
2017-12-31T02:44:53.831Z,12.46
2017-12-31T02:49:55.889Z,12.52
2017-12-31T02:54:57.212Z,12.49
2017-12-31T02:59:58.583Z,12.54
2017-12-31T03:04:59.915Z,12.60
2017-12-31T03:10:02.075Z,12.50
2017-12-31T03:15:03.394Z,12.53
2017-12-31T03:20:04.764Z,12.52
2017-12-31T03:25:06.082Z,12.57
2017-12-31T03:30:10.599Z,12.56
2017-12-31T03:35:14.497Z,12.63
2017-12-31T03:40:18.024Z,12.61
2017-12-31T03:45:21.514Z,12.62
2017-12-31T03:50:23.655Z,12.57
2017-12-31T03:55:24.992Z,12.44
2017-12-31T04:00:26.330Z,12.48
2017-12-31T04:05:27.817Z,12.48
2017-12-31T04:10:29.398Z,12.40
2017-12-31T04:15:31.458Z,12.44
2017-12-31T04:20:32.776Z,12.39
2017-12-31T04:25:34.116Z,12.47
2017-12-31T04:30:35.447Z,12.44
2017-12-31T04:35:36.789Z,12.46
2017-12-31T04:40:42.822Z,12.31
2017-12-31T04:45:45.743Z,12.29
2017-12-31T04:50:49.411Z,12.27
2017-12-31T04:55:50.811Z,12.25
2017-12-31T05:00:52.263Z,12.19
2017-12-31T05:05:53.682Z,12.18
2017-12-31T05:10:55.083Z,12.19
2017-12-31T05:15:56.478Z,12.22
2017-12-31T05:20:57.814Z,12.17
2017-12-31T05:25:59.140Z,12.14
2017-12-31T05:31:01.223Z,12.06
2017-12-31T05:36:02.584Z,12.05
2017-12-31T05:41:03.932Z,12.04
2017-12-31T05:46:05.315Z,12.05
2017-12-31T05:51:12.315Z,12.05
2017-12-31T05:56:17.844Z,12.00
2017-12-31T06:01:19.254Z,11.99
2017-12-31T06:06:20.654Z,11.94
2017-12-31T06:11:21.986Z,11.81
2017-12-31T06:16:24.101Z,11.89
2017-12-31T06:21:26.190Z,11.97
2017-12-31T06:26:27.531Z,11.98
2017-12-31T06:31:31.779Z,11.97
2017-12-31T06:36:34.300Z,11.93
2017-12-31T06:41:38.063Z,11.91
2017-12-31T06:46:43.464Z,11.96
2017-12-31T06:51:47.681Z,11.97
2017-12-31T06:56:49.016Z,11.94
2017-12-31T07:01:50.375Z,11.85
2017-12-31T07:06:51.707Z,11.92
2017-12-31T07:11:53.384Z,11.93
2017-12-31T07:16:54.758Z,11.95
2017-12-31T07:21:56.223Z,11.96
2017-12-31T07:27:01.622Z,12.08
2017-12-31T07:32:03.240Z,12.12
2017-12-31T07:37:08.199Z,12.26
2017-12-31T07:42:12.052Z,12.42
2017-12-31T07:47:16.715Z,12.53
2017-12-31T07:52:18.844Z,12.71
2017-12-31T07:57:20.222Z,12.75
2017-12-31T08:02:21.595Z,13.04
2017-12-31T08:07:22.910Z,13.11
2017-12-31T08:12:25.046Z,13.24
2017-12-31T08:17:26.520Z,13.35
2017-12-31T08:22:27.930Z,13.54
2017-12-31T08:27:29.410Z,13.68
2017-12-31T08:32:30.718Z,13.65
2017-12-31T08:37:32.050Z,13.75
2017-12-31T08:42:33.522Z,13.87
2017-12-31T08:47:38.984Z,13.87
2017-12-31T08:52:42.008Z,13.94
2017-12-31T08:57:45.100Z,13.84
2017-12-31T09:02:48.266Z,13.95
2017-12-31T09:07:51.035Z,14.01
2017-12-31T09:12:52.571Z,14.05
2017-12-31T09:17:53.883Z,14.01
2017-12-31T09:22:55.401Z,13.95
2017-12-31T09:27:56.720Z,14.04
2017-12-31T09:32:58.033Z,14.04
2017-12-31T09:38:00.102Z,14.08
2017-12-31T09:43:01.451Z,14.05
2017-12-31T09:48:02.934Z,14.13
2017-12-31T09:53:06.169Z,14.29
2017-12-31T09:58:11.161Z,14.24
2017-12-31T10:03:14.627Z,14.37
2017-12-31T10:08:16.026Z,14.55
2017-12-31T10:13:17.389Z,14.48
2017-12-31T10:18:18.787Z,14.52
2017-12-31T10:23:20.103Z,14.69
2017-12-31T10:28:23.195Z,14.75
2017-12-31T10:33:24.566Z,14.78
2017-12-31T10:38:25.935Z,14.98
2017-12-31T10:43:27.901Z,14.93
2017-12-31T10:48:29.319Z,14.93
2017-12-31T10:53:30.751Z,15.12
2017-12-31T10:58:32.235Z,15.25
2017-12-31T11:03:34.680Z,15.31
2017-12-31T11:08:39.692Z,15.22
2017-12-31T11:13:42.619Z,15.19
2017-12-31T11:18:44.608Z,14.95
2017-12-31T11:23:45.931Z,14.92
2017-12-31T11:28:47.431Z,14.95
2017-12-31T11:33:49.527Z,15.13
2017-12-31T11:38:50.904Z,15.01
2017-12-31T11:43:52.251Z,15.13
2017-12-31T11:48:53.588Z,15.15
2017-12-31T11:53:54.927Z,15.06
2017-12-31T11:58:56.265Z,15.16
2017-12-31T12:03:57.612Z,15.09
2017-12-31T12:08:58.943Z,15.10
2017-12-31T12:14:00.282Z,15.36
2017-12-31T12:19:01.622Z,15.34
2017-12-31T12:24:02.970Z,15.39
2017-12-31T12:29:04.718Z,15.54
2017-12-31T12:34:09.587Z,15.65
2017-12-31T12:39:12.708Z,15.86
2017-12-31T12:44:14.955Z,15.96
2017-12-31T12:49:17.056Z,15.86
2017-12-31T12:54:18.429Z,15.65
2017-12-31T12:59:19.772Z,15.62
2017-12-31T13:04:21.185Z,15.68
2017-12-31T13:09:22.739Z,15.72
2017-12-31T13:14:25.627Z,15.84
2017-12-31T13:19:26.989Z,15.78
2017-12-31T13:24:29.398Z,15.72
2017-12-31T13:29:30.947Z,15.80
2017-12-31T13:34:32.302Z,15.80
2017-12-31T13:39:33.631Z,15.79
2017-12-31T13:44:40.509Z,15.82
2017-12-31T13:49:43.553Z,15.82
2017-12-31T13:54:45.128Z,15.77
2017-12-31T13:59:46.519Z,15.81
2017-12-31T14:04:47.842Z,15.84
2017-12-31T14:09:49.194Z,15.89
2017-12-31T14:14:50.558Z,15.90
2017-12-31T14:19:51.918Z,15.98
2017-12-31T14:24:53.254Z,15.94
2017-12-31T14:29:54.773Z,15.94
2017-12-31T14:34:56.130Z,15.91
2017-12-31T14:39:57.531Z,15.79
2017-12-31T14:44:58.845Z,15.76
2017-12-31T14:50:00.193Z,15.70
2017-12-31T14:55:02.291Z,15.77
2017-12-31T15:00:05.487Z,15.81
2017-12-31T15:05:10.196Z,15.77
2017-12-31T15:10:12.911Z,15.84
2017-12-31T15:15:14.832Z,15.71
2017-12-31T15:20:16.217Z,15.62
2017-12-31T15:25:18.312Z,15.72
2017-12-31T15:30:19.659Z,15.65
2017-12-31T15:35:20.983Z,15.54
2017-12-31T15:40:22.340Z,15.52
2017-12-31T15:45:23.675Z,15.69
2017-12-31T15:50:25.014Z,15.78
2017-12-31T15:55:26.373Z,15.75
2017-12-31T16:00:28.463Z,15.63
2017-12-31T16:05:29.791Z,15.47
2017-12-31T16:10:31.121Z,15.43
2017-12-31T16:15:32.443Z,15.41
2017-12-31T16:20:39.343Z,15.29
2017-12-31T16:25:41.881Z,15.37
2017-12-31T16:30:44.660Z,15.19
2017-12-31T16:35:46.205Z,15.15
2017-12-31T16:40:48.310Z,15.25
2017-12-31T16:45:50.483Z,15.30
2017-12-31T16:50:51.810Z,15.34
2017-12-31T16:55:53.125Z,15.20
2017-12-31T17:00:55.232Z,15.18
2017-12-31T17:05:56.550Z,14.89
2017-12-31T17:10:57.913Z,15.01
2017-12-31T17:15:59.243Z,15.01
2017-12-31T17:21:00.606Z,15.03
2017-12-31T17:26:01.963Z,14.85
2017-12-31T17:31:03.303Z,14.97
2017-12-31T17:36:06.549Z,14.94
2017-12-31T17:41:13.520Z,14.90
2017-12-31T17:46:15.969Z,14.89
2017-12-31T17:51:17.332Z,14.92
2017-12-31T17:56:18.716Z,14.81
2017-12-31T18:01:20.835Z,14.75
2017-12-31T18:06:22.180Z,14.44
2017-12-31T18:11:23.626Z,14.46
2017-12-31T18:16:24.999Z,14.05
2017-12-31T18:21:27.144Z,14.20
2017-12-31T18:26:28.473Z,14.07
2017-12-31T18:31:29.788Z,13.89
2017-12-31T18:36:31.124Z,13.89
2017-12-31T18:41:32.475Z,14.04
2017-12-31T18:46:36.000Z,14.04
2017-12-31T18:51:40.621Z,13.94
2017-12-31T18:56:43.503Z,13.83
2017-12-31T19:01:45.107Z,13.84
2017-12-31T19:06:47.197Z,13.86
2017-12-31T19:11:48.559Z,13.91
2017-12-31T19:16:49.885Z,13.89
2017-12-31T19:21:51.224Z,13.84
2017-12-31T19:26:53.343Z,13.74
2017-12-31T19:31:54.682Z,13.52
2017-12-31T19:36:56.043Z,13.47
2017-12-31T19:41:58.166Z,13.47
2017-12-31T19:46:59.511Z,13.27
2017-12-31T19:52:00.852Z,13.31
2017-12-31T19:57:02.210Z,13.40
2017-12-31T20:02:03.606Z,13.37
2017-12-31T20:07:09.155Z,13.37
2017-12-31T20:12:14.292Z,13.54
2017-12-31T20:17:16.477Z,13.55
2017-12-31T20:22:17.858Z,13.63
2017-12-31T20:27:19.263Z,13.59
2017-12-31T20:32:20.579Z,13.62
2017-12-31T20:37:22.648Z,13.60
2017-12-31T20:42:24.016Z,13.47
2017-12-31T20:47:27.883Z,13.77
2017-12-31T20:52:29.332Z,13.57
2017-12-31T20:57:30.663Z,13.53
2017-12-31T21:02:32.015Z,13.52
2017-12-31T21:07:33.366Z,13.30
2017-12-31T21:12:38.044Z,13.24
2017-12-31T21:17:41.154Z,13.24
2017-12-31T21:22:44.803Z,13.16
2017-12-31T21:27:46.130Z,13.26
2017-12-31T21:32:47.491Z,13.10
2017-12-31T21:37:48.841Z,13.01
2017-12-31T21:42:50.988Z,13.07
2017-12-31T21:47:52.359Z,13.16
2017-12-31T21:52:53.712Z,12.94
2017-12-31T21:57:55.051Z,12.94
2017-12-31T22:02:57.184Z,12.77
2017-12-31T22:07:58.541Z,12.80
2017-12-31T22:12:59.857Z,12.87
2017-12-31T22:18:01.218Z,12.89
2017-12-31T22:23:02.548Z,12.81
2017-12-31T22:28:03.924Z,12.73
2017-12-31T22:33:11.385Z,12.69
2017-12-31T22:38:14.954Z,12.67
2017-12-31T22:43:16.315Z,12.51
2017-12-31T22:48:17.651Z,12.56
2017-12-31T22:53:18.999Z,12.67
2017-12-31T22:58:20.355Z,12.72
2017-12-31T23:03:22.480Z,12.66
2017-12-31T23:08:23.803Z,12.68
2017-12-31T23:13:25.168Z,12.68
2017-12-31T23:18:26.520Z,12.62
2017-12-31T23:23:28.605Z,12.72
2017-12-31T23:28:29.945Z,12.71
2017-12-31T23:33:31.278Z,12.59
2017-12-31T23:38:32.614Z,12.64
2017-12-31T23:43:35.870Z,12.69
2017-12-31T23:48:40.736Z,12.61
2017-12-31T23:53:43.168Z,12.54
2017-12-31T23:58:44.936Z,12.46
